Time;durP1;ratioP1;P1;durP2;ratioP2;P2;SDS_P1;SDS_P2;PMS_P1;PMS_P2;Temp;Humidity;BMP_temperature;BMP_pressure;BME280_temperature;BME280_humidity;BME280_pressure;Samples;Min_cycle;Max_cycle;Signal;HPM_P1;HPM_P2
2022/07/03 00:00:15;;;;;;;4.1;3.8;;;;;;;14.63;70.53906;95591.88;;;;
2022/07/03 00:01:16;;;;;;;4.1;3.8;;;;;;;14.63;70.53906;95591.88;;;;
2022/07/03 00:02:17;;;;;;;4.1;3.8;;;;;;;14.63;70.53906;95591.88;;;;
2022/07/03 00:03:17;;;;;;;4.1;3.8;;;;;;;14.63;70.53906;95591.88;;;;
2022/07/03 00:04:19;;;;;;;4.1;3.8;;;;;;;14.63;70.53906;95591.88;;;;
2022/07/03 00:05:20;;;;;;;4.1;3.8;;;;;;;14.63;70.53906;95591.88;;;;
2022/07/03 00:06:20;;;;;;;4.1;3.8;;;;;;;14.63;70.53906;95591.88;;;;
2022/07/03 00:07:22;;;;;;;4.1;3.8;;;;;;;14.63;70.53906;95591.88;;;;
2022/07/03 00:08:22;;;;;;;4.1;3.8;;;;;;;14.63;70.53906;95591.88;;;;
2022/07/03 00:09:23;;;;;;;4.1;3.8;;;;;;;14.63;70.53906;95591.88;;;;
2022/07/03 00:10:24;;;;;;;4.1;3.8;;;;;;;14.63;70.53906;95591.88;;;;
2022/07/03 00:11:25;;;;;;;4.1;3.8;;;;;;;14.63;70.53906;95591.88;;;;
2022/07/03 00:12:25;;;;;;;4.1;3.8;;;;;;;14.63;70.53906;95591.88;;;;
2022/07/03 00:13:26;;;;;;;4.699999;3.75;;;;;;;14.59;71.31543;95594.69;;;;
2022/07/03 00:14:26;;;;;;;4.699999;3.75;;;;;;;14.59;71.31543;95594.69;;;;
2022/07/03 00:15:27;;;;;;;4.699999;3.75;;;;;;;14.59;71.31543;95594.69;;;;
2022/07/03 00:16:27;;;;;;;4.699999;3.75;;;;;;;14.59;71.31543;95594.69;;;;
2022/07/03 00:17:28;;;;;;;4.699999;3.75;;;;;;;14.59;71.31543;95594.69;;;;
2022/07/03 00:18:29;;;;;;;4.699999;3.75;;;;;;;14.59;71.31543;95594.69;;;;
2022/07/03 00:19:29;;;;;;;4.699999;3.75;;;;;;;14.59;71.31543;95594.69;;;;
2022/07/03 00:20:30;;;;;;;4.699999;3.75;;;;;;;14.59;71.31543;95594.69;;;;
2022/07/03 00:21:41;;;;;;;4.699999;3.75;;;;;;;14.59;71.31543;95594.69;;;;
2022/07/03 00:22:46;;;;;;;4.699999;3.75;;;;;;;14.59;71.31543;95594.69;;;;
2022/07/03 00:23:49;;;;;;;4.699999;3.75;;;;;;;14.59;71.31543;95594.69;;;;
2022/07/03 00:24:54;;;;;;;6;3.3;;;;;;;14.77;71.44238;95598.19;;;;
2022/07/03 00:26:03;;;;;;;6;3.3;;;;;;;14.77;71.44238;95598.19;;;;
2022/07/03 00:27:05;;;;;;;6;3.3;;;;;;;14.77;71.44238;95598.19;;;;
2022/07/03 00:28:08;;;;;;;6;3.3;;;;;;;14.77;71.44238;95598.19;;;;
2022/07/03 00:29:10;;;;;;;6;3.3;;;;;;;14.77;71.44238;95598.19;;;;
2022/07/03 00:30:12;;;;;;;6;3.3;;;;;;;14.77;71.44238;95598.19;;;;
2022/07/03 00:31:13;;;;;;;6;3.3;;;;;;;14.77;71.44238;95598.19;;;;
2022/07/03 00:32:14;;;;;;;6;3.3;;;;;;;14.77;71.44238;95598.19;;;;
2022/07/03 00:33:21;;;;;;;6;3.3;;;;;;;14.77;71.44238;95598.19;;;;
2022/07/03 00:34:25;;;;;;;6;3.3;;;;;;;14.77;71.44238;95598.19;;;;
2022/07/03 00:35:26;;;;;;;6;3.3;;;;;;;14.77;71.44238;95598.19;;;;
2022/07/03 00:36:31;;;;;;;6;3.3;;;;;;;14.77;71.44238;95598.19;;;;
2022/07/03 00:37:36;;;;;;;6;3.3;;;;;;;14.77;71.44238;95598.19;;;;
2022/07/03 00:38:37;;;;;;;6;3.3;;;;;;;14.77;71.44238;95598.19;;;;
2022/07/03 00:39:38;;;;;;;6;3.3;;;;;;;14.77;71.44238;95598.19;;;;
2022/07/03 00:40:41;;;;;;;6;3.3;;;;;;;14.77;71.44238;95598.19;;;;
2022/07/03 00:41:43;;;;;;;6;3.3;;;;;;;14.77;71.44238;95598.19;;;;
2022/07/03 00:42:44;;;;;;;6;3.3;;;;;;;14.77;71.44238;95598.19;;;;
2022/07/03 00:43:49;;;;;;;6;3.3;;;;;;;14.77;71.44238;95598.19;;;;
2022/07/03 00:44:50;;;;;;;6;3.3;;;;;;;14.77;71.44238;95598.19;;;;
2022/07/03 00:45:53;;;;;;;3.2;2.95;;;;;;;15.24;71.36523;95584.77;;;;
2022/07/03 00:46:53;;;;;;;3.2;2.95;;;;;;;15.24;71.36523;95584.77;;;;
2022/07/03 00:47:55;;;;;;;3.2;2.95;;;;;;;15.24;71.36523;95584.77;;;;
2022/07/03 00:48:55;;;;;;;3.2;2.95;;;;;;;15.24;71.36523;95584.77;;;;
2022/07/03 00:49:58;;;;;;;3.2;2.95;;;;;;;15.24;71.36523;95584.77;;;;
2022/07/03 00:50:58;;;;;;;3.2;2.95;;;;;;;15.24;71.36523;95584.77;;;;
2022/07/03 00:51:59;;;;;;;3.2;2.95;;;;;;;15.24;71.36523;95584.77;;;;
2022/07/03 00:53:04;;;;;;;3.2;2.95;;;;;;;15.24;71.36523;95584.77;;;;
2022/07/03 00:54:08;;;;;;;3.2;2.95;;;;;;;15.24;71.36523;95584.77;;;;
2022/07/03 00:55:09;;;;;;;3.2;2.95;;;;;;;15.24;71.36523;95584.77;;;;
2022/07/03 00:56:15;;;;;;;3.55;3.25;;;;;;;15.47;71.36914;95584.36;;;;
2022/07/03 00:57:16;;;;;;;3.55;3.25;;;;;;;15.47;71.36914;95584.36;;;;
2022/07/03 00:58:19;;;;;;;3.55;3.25;;;;;;;15.47;71.36914;95584.36;;;;
2022/07/03 00:59:20;;;;;;;3.55;3.25;;;;;;;15.47;71.36914;95584.36;;;;
2022/07/03 01:00:20;;;;;;;3.55;3.25;;;;;;;15.47;71.36914;95584.36;;;;
2022/07/03 01:01:22;;;;;;;3.55;3.25;;;;;;;15.47;71.36914;95584.36;;;;
2022/07/03 01:02:25;;;;;;;3.55;3.25;;;;;;;15.47;71.36914;95584.36;;;;
2022/07/03 01:03:34;;;;;;;3.55;3.25;;;;;;;15.47;71.36914;95584.36;;;;
2022/07/03 01:04:44;;;;;;;3.55;3.25;;;;;;;15.47;71.36914;95584.36;;;;
2022/07/03 01:05:51;;;;;;;3.55;3.25;;;;;;;15.47;71.36914;95584.36;;;;
2022/07/03 01:06:54;;;;;;;3.6;3.3;;;;;;;15.48;71.49023;95580.67;;;;
2022/07/03 01:08:06;;;;;;;3.6;3.3;;;;;;;15.48;71.49023;95580.67;;;;
2022/07/03 01:09:17;;;;;;;3.6;3.3;;;;;;;15.48;71.49023;95580.67;;;;
2022/07/03 01:10:26;;;;;;;3.6;3.3;;;;;;;15.48;71.49023;95580.67;;;;
2022/07/03 01:11:36;;;;;;;3.6;3.3;;;;;;;15.48;71.49023;95580.67;;;;
2022/07/03 01:12:43;;;;;;;3.6;3.3;;;;;;;15.48;71.49023;95580.67;;;;
2022/07/03 01:13:56;;;;;;;3.6;3.3;;;;;;;15.48;71.49023;95580.67;;;;
2022/07/03 01:15:13;;;;;;;3.6;3.3;;;;;;;15.48;71.49023;95580.67;;;;
2022/07/03 01:16:22;;;;;;;3.6;3.3;;;;;;;15.48;71.49023;95580.67;;;;
2022/07/03 01:17:27;;;;;;;5.2;3.65;;;;;;;15.42;71.78613;95583.33;;;;
2022/07/03 01:18:33;;;;;;;5.2;3.65;;;;;;;15.42;71.78613;95583.33;;;;
2022/07/03 01:19:41;;;;;;;5.2;3.65;;;;;;;15.42;71.78613;95583.33;;;;
2022/07/03 01:20:43;;;;;;;5.2;3.65;;;;;;;15.42;71.78613;95583.33;;;;
2022/07/03 01:21:51;;;;;;;5.2;3.65;;;;;;;15.42;71.78613;95583.33;;;;
2022/07/03 01:23:02;;;;;;;5.2;3.65;;;;;;;15.42;71.78613;95583.33;;;;
2022/07/03 01:24:13;;;;;;;5.2;3.65;;;;;;;15.42;71.78613;95583.33;;;;
2022/07/03 01:26:02;;;;;;;5.2;3.65;;;;;;;15.42;71.78613;95583.33;;;;
2022/07/03 01:27:03;;;;;;;5.2;3.65;;;;;;;15.42;71.78613;95583.33;;;;
2022/07/03 01:28:10;;;;;;;3.7;3.400001;;;;;;;15.17;72.1709;95570.64;;;;
2022/07/03 01:29:13;;;;;;;3.7;3.400001;;;;;;;15.17;72.1709;95570.64;;;;
2022/07/03 01:30:21;;;;;;;3.7;3.400001;;;;;;;15.17;72.1709;95570.64;;;;
2022/07/03 01:31:22;;;;;;;3.7;3.400001;;;;;;;15.17;72.1709;95570.64;;;;
2022/07/03 01:32:23;;;;;;;3.7;3.400001;;;;;;;15.17;72.1709;95570.64;;;;
2022/07/03 01:33:31;;;;;;;3.7;3.400001;;;;;;;15.17;72.1709;95570.64;;;;
2022/07/03 01:34:35;;;;;;;3.7;3.400001;;;;;;;15.17;72.1709;95570.64;;;;
2022/07/03 01:35:39;;;;;;;3.7;3.400001;;;;;;;15.17;72.1709;95570.64;;;;
2022/07/03 01:36:41;;;;;;;3.7;3.400001;;;;;;;15.17;72.1709;95570.64;;;;
2022/07/03 01:37:43;;;;;;;3.7;3.400001;;;;;;;15.17;72.1709;95570.64;;;;
2022/07/03 01:38:45;;;;;;;3.7;3.400001;;;;;;;14.94;72.71094;95567.61;;;;
2022/07/03 01:39:49;;;;;;;3.7;3.400001;;;;;;;14.94;72.71094;95567.61;;;;
2022/07/03 01:40:53;;;;;;;3.7;3.400001;;;;;;;14.94;72.71094;95567.61;;;;
2022/07/03 01:41:55;;;;;;;3.7;3.400001;;;;;;;14.94;72.71094;95567.61;;;;
2022/07/03 01:42:59;;;;;;;3.7;3.400001;;;;;;;14.94;72.71094;95567.61;;;;
2022/07/03 01:44:02;;;;;;;3.7;3.400001;;;;;;;14.94;72.71094;95567.61;;;;
2022/07/03 01:45:05;;;;;;;3.7;3.400001;;;;;;;14.94;72.71094;95567.61;;;;
2022/07/03 01:46:09;;;;;;;3.7;3.400001;;;;;;;14.94;72.71094;95567.61;;;;
2022/07/03 01:47:12;;;;;;;3.7;3.400001;;;;;;;14.94;72.71094;95567.61;;;;
2022/07/03 01:48:14;;;;;;;3.7;3.400001;;;;;;;14.94;72.71094;95567.61;;;;
2022/07/03 01:49:15;;;;;;;3.7;3.400001;;;;;;;14.94;72.71094;95567.61;;;;
2022/07/03 01:50:17;;;;;;;3.7;3.4;;;;;;;14.82;73.1582;95565.45;;;;
2022/07/03 01:51:23;;;;;;;3.7;3.4;;;;;;;14.82;73.1582;95565.45;;;;
2022/07/03 01:52:24;;;;;;;3.7;3.4;;;;;;;14.82;73.1582;95565.45;;;;
2022/07/03 01:53:25;;;;;;;3.7;3.4;;;;;;;14.82;73.1582;95565.45;;;;
2022/07/03 01:54:28;;;;;;;3.7;3.4;;;;;;;14.82;73.1582;95565.45;;;;
2022/07/03 01:55:32;;;;;;;3.7;3.4;;;;;;;14.82;73.1582;95565.45;;;;
2022/07/03 01:56:34;;;;;;;3.7;3.4;;;;;;;14.82;73.1582;95565.45;;;;
2022/07/03 01:57:35;;;;;;;3.7;3.4;;;;;;;14.82;73.1582;95565.45;;;;
2022/07/03 01:58:41;;;;;;;3.7;3.4;;;;;;;14.82;73.1582;95565.45;;;;
2022/07/03 01:59:42;;;;;;;3.7;3.4;;;;;;;14.82;73.1582;95565.45;;;;
2022/07/03 02:00:43;;;;;;;3.95;3.6;;;;;;;14.78;73.55371;95566.05;;;;
2022/07/03 02:01:50;;;;;;;3.95;3.6;;;;;;;14.78;73.55371;95566.05;;;;
2022/07/03 02:02:52;;;;;;;3.95;3.6;;;;;;;14.78;73.55371;95566.05;;;;
2022/07/03 02:03:56;;;;;;;3.95;3.6;;;;;;;14.78;73.55371;95566.05;;;;
2022/07/03 02:05:04;;;;;;;3.95;3.6;;;;;;;14.78;73.55371;95566.05;;;;
2022/07/03 02:06:10;;;;;;;3.95;3.6;;;;;;;14.78;73.55371;95566.05;;;;
2022/07/03 02:07:24;;;;;;;3.95;3.6;;;;;;;14.78;73.55371;95566.05;;;;
2022/07/03 02:08:35;;;;;;;3.95;3.6;;;;;;;14.78;73.55371;95566.05;;;;
2022/07/03 02:09:43;;;;;;;3.95;3.6;;;;;;;14.78;73.55371;95566.05;;;;
2022/07/03 02:10:58;;;;;;;3.95;3.55;;;;;;;14.7;73.86426;95569.56;;;;
2022/07/03 02:12:09;;;;;;;3.95;3.55;;;;;;;14.7;73.86426;95569.56;;;;
2022/07/03 02:13:13;;;;;;;3.95;3.55;;;;;;;14.7;73.86426;95569.56;;;;
2022/07/03 02:14:17;;;;;;;3.95;3.55;;;;;;;14.7;73.86426;95569.56;;;;
2022/07/03 02:15:19;;;;;;;3.95;3.55;;;;;;;14.7;73.86426;95569.56;;;;
2022/07/03 02:16:28;;;;;;;3.95;3.55;;;;;;;14.7;73.86426;95569.56;;;;
2022/07/03 02:17:36;;;;;;;3.95;3.55;;;;;;;14.7;73.86426;95569.56;;;;
2022/07/03 02:18:39;;;;;;;3.95;3.55;;;;;;;14.7;73.86426;95569.56;;;;
2022/07/03 02:19:40;;;;;;;3.95;3.55;;;;;;;14.7;73.86426;95569.56;;;;
2022/07/03 02:20:48;;;;;;;3.95;3.55;;;;;;;14.7;73.86426;95569.56;;;;
2022/07/03 02:22:00;;;;;;;3.55;3.25;;;;;;;14.66;74.12988;95581.28;;;;
2022/07/03 02:23:03;;;;;;;3.55;3.25;;;;;;;14.66;74.12988;95581.28;;;;
2022/07/03 02:24:07;;;;;;;3.55;3.25;;;;;;;14.66;74.12988;95581.28;;;;
2022/07/03 02:25:18;;;;;;;3.55;3.25;;;;;;;14.66;74.12988;95581.28;;;;
2022/07/03 02:26:22;;;;;;;3.55;3.25;;;;;;;14.66;74.12988;95581.28;;;;
2022/07/03 02:27:29;;;;;;;3.55;3.25;;;;;;;14.66;74.12988;95581.28;;;;
2022/07/03 02:28:40;;;;;;;3.55;3.25;;;;;;;14.66;74.12988;95581.28;;;;
2022/07/03 02:29:55;;;;;;;3.55;3.25;;;;;;;14.66;74.12988;95581.28;;;;
2022/07/03 02:31:03;;;;;;;3.55;3.25;;;;;;;14.66;74.12988;95581.28;;;;
2022/07/03 02:32:07;;;;;;;3.55;3.25;;;;;;;14.66;74.12988;95581.28;;;;
2022/07/03 02:33:14;;;;;;;3.55;3.25;;;;;;;14.66;74.12988;95581.28;;;;
2022/07/03 02:34:19;;;;;;;3.55;3.25;;;;;;;14.66;74.12988;95581.28;;;;
2022/07/03 02:35:24;;;;;;;3.55;3.25;;;;;;;14.66;74.12988;95581.28;;;;
2022/07/03 02:36:27;;;;;;;3.55;3.25;;;;;;;14.66;74.12988;95581.28;;;;
2022/07/03 02:37:29;;;;;;;3.55;3.25;;;;;;;14.66;74.12988;95581.28;;;;
2022/07/03 02:38:34;;;;;;;3.55;3.25;;;;;;;14.66;74.12988;95581.28;;;;
2022/07/03 02:39:35;;;;;;;3.55;3.25;;;;;;;14.66;74.12988;95581.28;;;;
2022/07/03 02:40:45;;;;;;;3.55;3.25;;;;;;;14.66;74.12988;95581.28;;;;
2022/07/03 02:41:56;;;;;;;3.55;3.25;;;;;;;14.66;74.12988;95581.28;;;;
2022/07/03 02:43:00;;;;;;;4.25;3.85;;;;;;;14.49;74.9043;95574.52;;;;
2022/07/03 02:44:14;;;;;;;4.25;3.85;;;;;;;14.49;74.9043;95574.52;;;;
2022/07/03 02:45:25;;;;;;;4.25;3.85;;;;;;;14.49;74.9043;95574.52;;;;
2022/07/03 02:47:04;;;;;;;4.25;3.85;;;;;;;14.49;74.9043;95574.52;;;;
2022/07/03 02:48:14;;;;;;;4.25;3.85;;;;;;;14.49;74.9043;95574.52;;;;
2022/07/03 02:49:24;;;;;;;4.25;3.85;;;;;;;14.49;74.9043;95574.52;;;;
2022/07/03 02:50:41;;;;;;;4.25;3.85;;;;;;;14.49;74.9043;95574.52;;;;
2022/07/03 02:51:47;;;;;;;4.25;3.85;;;;;;;14.49;74.9043;95574.52;;;;
2022/07/03 02:52:54;;;;;;;4.25;3.85;;;;;;;14.49;74.9043;95574.52;;;;
2022/07/03 02:54:04;;;;;;;4.6;3.9;;;;;;;14.35;75.21875;95589.84;;;;
2022/07/03 02:55:14;;;;;;;4.6;3.9;;;;;;;14.35;75.21875;95589.84;;;;
2022/07/03 02:56:34;;;;;;;4.6;3.9;;;;;;;14.35;75.21875;95589.84;;;;
2022/07/03 02:57:43;;;;;;;4.6;3.9;;;;;;;14.35;75.21875;95589.84;;;;
2022/07/03 02:58:45;;;;;;;4.6;3.9;;;;;;;14.35;75.21875;95589.84;;;;
2022/07/03 03:00:03;;;;;;;4.6;3.9;;;;;;;14.35;75.21875;95589.84;;;;
2022/07/03 03:01:05;;;;;;;4.6;3.9;;;;;;;14.35;75.21875;95589.84;;;;
2022/07/03 03:02:09;;;;;;;4.6;3.9;;;;;;;14.35;75.21875;95589.84;;;;
2022/07/03 03:03:17;;;;;;;4.6;3.9;;;;;;;14.35;75.21875;95589.84;;;;
2022/07/03 03:04:26;;;;;;;4.3;3.9;;;;;;;14.2;75.66992;95588.09;;;;
2022/07/03 03:05:30;;;;;;;4.3;3.9;;;;;;;14.2;75.66992;95588.09;;;;
2022/07/03 03:06:37;;;;;;;4.3;3.9;;;;;;;14.2;75.66992;95588.09;;;;
2022/07/03 03:07:46;;;;;;;4.3;3.9;;;;;;;14.2;75.66992;95588.09;;;;
2022/07/03 03:08:59;;;;;;;4.3;3.9;;;;;;;14.2;75.66992;95588.09;;;;
2022/07/03 03:10:03;;;;;;;4.3;3.9;;;;;;;14.2;75.66992;95588.09;;;;
2022/07/03 03:11:05;;;;;;;4.3;3.9;;;;;;;14.2;75.66992;95588.09;;;;
2022/07/03 03:12:07;;;;;;;4.3;3.9;;;;;;;14.2;75.66992;95588.09;;;;
2022/07/03 03:13:09;;;;;;;4.3;3.9;;;;;;;14.2;75.66992;95588.09;;;;
2022/07/03 03:14:12;;;;;;;4.3;3.9;;;;;;;14.2;75.66992;95588.09;;;;
2022/07/03 03:15:17;;;;;;;4.5;4.1;;;;;;;14.01;76.0918;95598.08;;;;
2022/07/03 03:16:20;;;;;;;4.5;4.1;;;;;;;14.01;76.0918;95598.08;;;;
2022/07/03 03:17:21;;;;;;;4.5;4.1;;;;;;;14.01;76.0918;95598.08;;;;
2022/07/03 03:18:24;;;;;;;4.5;4.1;;;;;;;14.01;76.0918;95598.08;;;;
2022/07/03 03:19:28;;;;;;;4.5;4.1;;;;;;;14.01;76.0918;95598.08;;;;
2022/07/03 03:20:32;;;;;;;4.5;4.1;;;;;;;14.01;76.0918;95598.08;;;;
2022/07/03 03:21:35;;;;;;;4.5;4.1;;;;;;;14.01;76.0918;95598.08;;;;
2022/07/03 03:22:45;;;;;;;4.5;4.1;;;;;;;14.01;76.0918;95598.08;;;;
2022/07/03 03:24:06;;;;;;;4.5;4.1;;;;;;;14.01;76.0918;95598.08;;;;
2022/07/03 03:25:07;;;;;;;4.5;4.1;;;;;;;14.01;76.0918;95598.08;;;;
2022/07/03 03:26:07;;;;;;;4.799999;4.4;;;;;;;14.01;76.5791;95604.72;;;;
2022/07/03 03:27:08;;;;;;;4.799999;4.4;;;;;;;14.01;76.5791;95604.72;;;;
2022/07/03 03:28:10;;;;;;;4.799999;4.4;;;;;;;14.01;76.5791;95604.72;;;;
2022/07/03 03:29:11;;;;;;;4.799999;4.4;;;;;;;14.01;76.5791;95604.72;;;;
2022/07/03 03:30:12;;;;;;;4.799999;4.4;;;;;;;14.01;76.5791;95604.72;;;;
2022/07/03 03:31:13;;;;;;;4.799999;4.4;;;;;;;14.01;76.5791;95604.72;;;;
2022/07/03 03:32:14;;;;;;;4.799999;4.4;;;;;;;14.01;76.5791;95604.72;;;;
2022/07/03 03:33:16;;;;;;;4.799999;4.4;;;;;;;14.01;76.5791;95604.72;;;;
2022/07/03 03:34:17;;;;;;;4.799999;4.4;;;;;;;14.01;76.5791;95604.72;;;;
2022/07/03 03:35:20;;;;;;;4.799999;4.4;;;;;;;14.01;76.5791;95604.72;;;;
2022/07/03 03:36:21;;;;;;;5.25;4.85;;;;;;;14.09;77.02637;95614.25;;;;
2022/07/03 03:37:21;;;;;;;5.25;4.85;;;;;;;14.09;77.02637;95614.25;;;;
2022/07/03 03:38:22;;;;;;;5.25;4.85;;;;;;;14.09;77.02637;95614.25;;;;
2022/07/03 03:39:22;;;;;;;5.25;4.85;;;;;;;14.09;77.02637;95614.25;;;;
2022/07/03 03:40:24;;;;;;;5.25;4.85;;;;;;;14.09;77.02637;95614.25;;;;
2022/07/03 03:41:25;;;;;;;5.25;4.85;;;;;;;14.09;77.02637;95614.25;;;;
2022/07/03 03:42:26;;;;;;;5.25;4.85;;;;;;;14.09;77.02637;95614.25;;;;
2022/07/03 03:43:27;;;;;;;5.25;4.85;;;;;;;14.09;77.02637;95614.25;;;;
2022/07/03 03:44:27;;;;;;;5.25;4.85;;;;;;;14.09;77.02637;95614.25;;;;
2022/07/03 03:45:28;;;;;;;5.25;4.85;;;;;;;14.09;77.02637;95614.25;;;;
2022/07/03 03:46:28;;;;;;;5.25;4.85;;;;;;;14.09;77.02637;95614.25;;;;
2022/07/03 03:47:29;;;;;;;5.500001;5.000001;;;;;;;14.25;77.37012;95611.36;;;;
2022/07/03 03:48:29;;;;;;;5.500001;5.000001;;;;;;;14.25;77.37012;95611.36;;;;
2022/07/03 03:49:31;;;;;;;5.500001;5.000001;;;;;;;14.25;77.37012;95611.36;;;;
2022/07/03 03:50:33;;;;;;;5.500001;5.000001;;;;;;;14.25;77.37012;95611.36;;;;
2022/07/03 03:51:33;;;;;;;5.500001;5.000001;;;;;;;14.25;77.37012;95611.36;;;;
2022/07/03 03:52:34;;;;;;;5.500001;5.000001;;;;;;;14.25;77.37012;95611.36;;;;
2022/07/03 03:53:35;;;;;;;5.500001;5.000001;;;;;;;14.25;77.37012;95611.36;;;;
2022/07/03 03:54:35;;;;;;;5.500001;5.000001;;;;;;;14.25;77.37012;95611.36;;;;
2022/07/03 03:55:36;;;;;;;5.500001;5.000001;;;;;;;14.25;77.37012;95611.36;;;;
2022/07/03 03:56:36;;;;;;;5.500001;5.000001;;;;;;;14.25;77.37012;95611.36;;;;
2022/07/03 03:57:37;;;;;;;5.849999;4.75;;;;;;;14.34;77.65723;95619.74;;;;
2022/07/03 03:58:37;;;;;;;5.849999;4.75;;;;;;;14.34;77.65723;95619.74;;;;
2022/07/03 03:59:40;;;;;;;5.849999;4.75;;;;;;;14.34;77.65723;95619.74;;;;
2022/07/03 04:00:40;;;;;;;5.849999;4.75;;;;;;;14.34;77.65723;95619.74;;;;
2022/07/03 04:01:41;;;;;;;5.849999;4.75;;;;;;;14.34;77.65723;95619.74;;;;
2022/07/03 04:02:41;;;;;;;5.849999;4.75;;;;;;;14.34;77.65723;95619.74;;;;
2022/07/03 04:03:42;;;;;;;5.849999;4.75;;;;;;;14.34;77.65723;95619.74;;;;
2022/07/03 04:04:42;;;;;;;5.849999;4.75;;;;;;;14.34;77.65723;95619.74;;;;
2022/07/03 04:05:43;;;;;;;5.849999;4.75;;;;;;;14.34;77.65723;95619.74;;;;
2022/07/03 04:06:44;;;;;;;5.849999;4.75;;;;;;;14.34;77.65723;95619.74;;;;
2022/07/03 04:07:44;;;;;;;5.849999;4.75;;;;;;;14.34;77.65723;95619.74;;;;
2022/07/03 04:08:45;;;;;;;5.600001;5.1;;;;;;;14.46;77.94824;95626.43;;;;
2022/07/03 04:09:45;;;;;;;5.600001;5.1;;;;;;;14.46;77.94824;95626.43;;;;
2022/07/03 04:10:46;;;;;;;5.600001;5.1;;;;;;;14.46;77.94824;95626.43;;;;
2022/07/03 04:11:47;;;;;;;5.600001;5.1;;;;;;;14.46;77.94824;95626.43;;;;
2022/07/03 04:12:47;;;;;;;5.600001;5.1;;;;;;;14.46;77.94824;95626.43;;;;
2022/07/03 04:13:48;;;;;;;5.600001;5.1;;;;;;;14.46;77.94824;95626.43;;;;
2022/07/03 04:14:48;;;;;;;5.600001;5.1;;;;;;;14.46;77.94824;95626.43;;;;
2022/07/03 04:15:49;;;;;;;5.600001;5.1;;;;;;;14.46;77.94824;95626.43;;;;
2022/07/03 04:16:51;;;;;;;5.600001;5.1;;;;;;;14.46;77.94824;95626.43;;;;
2022/07/03 04:17:51;;;;;;;5.600001;5.1;;;;;;;14.46;77.94824;95626.43;;;;
2022/07/03 04:18:52;;;;;;;5.600001;5.100001;;;;;;;14.51;78.21875;95623.77;;;;
2022/07/03 04:19:53;;;;;;;5.600001;5.100001;;;;;;;14.51;78.21875;95623.77;;;;
2022/07/03 04:20:53;;;;;;;5.600001;5.100001;;;;;;;14.51;78.21875;95623.77;;;;
2022/07/03 04:21:54;;;;;;;5.600001;5.100001;;;;;;;14.51;78.21875;95623.77;;;;
2022/07/03 04:22:54;;;;;;;5.600001;5.100001;;;;;;;14.51;78.21875;95623.77;;;;
2022/07/03 04:23:54;;;;;;;5.600001;5.100001;;;;;;;14.51;78.21875;95623.77;;;;
2022/07/03 04:24:55;;;;;;;5.600001;5.100001;;;;;;;14.51;78.21875;95623.77;;;;
2022/07/03 04:25:55;;;;;;;5.600001;5.100001;;;;;;;14.51;78.21875;95623.77;;;;
2022/07/03 04:27:02;;;;;;;5.600001;5.100001;;;;;;;14.51;78.21875;95623.77;;;;
2022/07/03 04:28:03;;;;;;;5.600001;5.100001;;;;;;;14.51;78.21875;95623.77;;;;
2022/07/03 04:29:04;;;;;;;5.600001;5.100001;;;;;;;14.51;78.21875;95623.77;;;;
2022/07/03 04:30:09;;;;;;;5.600001;5.100001;;;;;;;14.51;78.21875;95623.77;;;;
2022/07/03 04:31:11;;;;;;;5.600001;5.100001;;;;;;;14.51;78.21875;95623.77;;;;
2022/07/03 04:32:12;;;;;;;5.600001;5.100001;;;;;;;14.51;78.21875;95623.77;;;;
2022/07/03 04:33:12;;;;;;;5.600001;5.100001;;;;;;;14.51;78.21875;95623.77;;;;
2022/07/03 04:34:13;;;;;;;5.600001;5.100001;;;;;;;14.51;78.21875;95623.77;;;;
2022/07/03 04:35:13;;;;;;;5.600001;5.100001;;;;;;;14.51;78.21875;95623.77;;;;
2022/07/03 04:36:14;;;;;;;5.600001;5.100001;;;;;;;14.51;78.21875;95623.77;;;;
2022/07/03 04:37:15;;;;;;;5.600001;5.100001;;;;;;;14.51;78.21875;95623.77;;;;
2022/07/03 04:38:15;;;;;;;5.600001;5.100001;;;;;;;14.51;78.21875;95623.77;;;;
2022/07/03 04:39:15;;;;;;;5.600001;5.100001;;;;;;;14.51;78.21875;95623.77;;;;
2022/07/03 04:40:16;;;;;;;4.95;4.55;;;;;;;14.86;78.61621;95632.25;;;;
2022/07/03 04:41:16;;;;;;;4.95;4.55;;;;;;;14.86;78.61621;95632.25;;;;
2022/07/03 04:42:17;;;;;;;4.95;4.55;;;;;;;14.86;78.61621;95632.25;;;;
2022/07/03 04:43:18;;;;;;;4.95;4.55;;;;;;;14.86;78.61621;95632.25;;;;
2022/07/03 04:44:18;;;;;;;4.95;4.55;;;;;;;14.86;78.61621;95632.25;;;;
2022/07/03 04:45:19;;;;;;;4.95;4.55;;;;;;;14.86;78.61621;95632.25;;;;
2022/07/03 04:46:21;;;;;;;4.95;4.55;;;;;;;14.86;78.61621;95632.25;;;;
2022/07/03 04:47:21;;;;;;;4.95;4.55;;;;;;;14.86;78.61621;95632.25;;;;
2022/07/03 04:48:22;;;;;;;4.95;4.55;;;;;;;14.86;78.61621;95632.25;;;;
2022/07/03 04:49:22;;;;;;;4.95;4.55;;;;;;;14.86;78.61621;95632.25;;;;
2022/07/03 04:50:23;;;;;;;4.95;4.55;;;;;;;14.86;78.61621;95632.25;;;;
2022/07/03 04:51:24;;;;;;;5.6;4.95;;;;;;;15.19;78.79395;95639.28;;;;
2022/07/03 04:52:24;;;;;;;5.6;4.95;;;;;;;15.19;78.79395;95639.28;;;;
2022/07/03 04:53:25;;;;;;;5.6;4.95;;;;;;;15.19;78.79395;95639.28;;;;
2022/07/03 04:54:25;;;;;;;5.6;4.95;;;;;;;15.19;78.79395;95639.28;;;;
2022/07/03 04:55:26;;;;;;;5.6;4.95;;;;;;;15.19;78.79395;95639.28;;;;
2022/07/03 04:56:27;;;;;;;5.6;4.95;;;;;;;15.19;78.79395;95639.28;;;;
2022/07/03 04:57:28;;;;;;;5.6;4.95;;;;;;;15.19;78.79395;95639.28;;;;
2022/07/03 04:58:28;;;;;;;5.6;4.95;;;;;;;15.19;78.79395;95639.28;;;;
2022/07/03 04:59:29;;;;;;;5.6;4.95;;;;;;;15.19;78.79395;95639.28;;;;
2022/07/03 05:00:30;;;;;;;5.6;4.95;;;;;;;15.19;78.79395;95639.28;;;;
2022/07/03 05:01:30;;;;;;;4.95;4.5;;;;;;;15.64;78.82031;95642.57;;;;
2022/07/03 05:02:31;;;;;;;4.95;4.5;;;;;;;15.64;78.82031;95642.57;;;;
2022/07/03 05:03:31;;;;;;;4.95;4.5;;;;;;;15.64;78.82031;95642.57;;;;
2022/07/03 05:04:32;;;;;;;4.95;4.5;;;;;;;15.64;78.82031;95642.57;;;;
2022/07/03 05:05:33;;;;;;;4.95;4.5;;;;;;;15.64;78.82031;95642.57;;;;
2022/07/03 05:06:33;;;;;;;4.95;4.5;;;;;;;15.64;78.82031;95642.57;;;;
2022/07/03 05:07:34;;;;;;;4.95;4.5;;;;;;;15.64;78.82031;95642.57;;;;
2022/07/03 05:08:34;;;;;;;4.95;4.5;;;;;;;15.64;78.82031;95642.57;;;;
2022/07/03 05:09:35;;;;;;;4.95;4.5;;;;;;;15.64;78.82031;95642.57;;;;
2022/07/03 05:10:35;;;;;;;4.95;4.5;;;;;;;15.64;78.82031;95642.57;;;;
2022/07/03 05:11:36;;;;;;;4.95;4.5;;;;;;;15.64;78.82031;95642.57;;;;
2022/07/03 05:12:36;;;;;;;4.900001;4.400001;;;;;;;16.29;78.7832;95650.95;;;;
2022/07/03 05:13:37;;;;;;;4.900001;4.400001;;;;;;;16.29;78.7832;95650.95;;;;
2022/07/03 05:14:37;;;;;;;4.900001;4.400001;;;;;;;16.29;78.7832;95650.95;;;;
2022/07/03 05:15:38;;;;;;;4.900001;4.400001;;;;;;;16.29;78.7832;95650.95;;;;
2022/07/03 05:16:38;;;;;;;4.900001;4.400001;;;;;;;16.29;78.7832;95650.95;;;;
2022/07/03 05:17:39;;;;;;;4.900001;4.400001;;;;;;;16.29;78.7832;95650.95;;;;
2022/07/03 05:18:39;;;;;;;4.900001;4.400001;;;;;;;16.29;78.7832;95650.95;;;;
2022/07/03 05:19:40;;;;;;;4.900001;4.400001;;;;;;;16.29;78.7832;95650.95;;;;
2022/07/03 05:20:40;;;;;;;4.900001;4.400001;;;;;;;16.29;78.7832;95650.95;;;;
2022/07/03 05:21:41;;;;;;;4.900001;4.400001;;;;;;;16.29;78.7832;95650.95;;;;
2022/07/03 05:22:41;;;;;;;4.900001;4.400001;;;;;;;16.29;78.7832;95650.95;;;;
2022/07/03 05:23:42;;;;;;;4;3.7;;;;;;;16.96;78.61914;95657.67;;;;
2022/07/03 05:24:42;;;;;;;4;3.7;;;;;;;16.96;78.61914;95657.67;;;;
2022/07/03 05:25:43;;;;;;;4;3.7;;;;;;;16.96;78.61914;95657.67;;;;
2022/07/03 05:26:43;;;;;;;4;3.7;;;;;;;16.96;78.61914;95657.67;;;;
2022/07/03 05:27:44;;;;;;;4;3.7;;;;;;;16.96;78.61914;95657.67;;;;
2022/07/03 05:28:44;;;;;;;4;3.7;;;;;;;16.96;78.61914;95657.67;;;;
2022/07/03 05:29:45;;;;;;;4;3.7;;;;;;;16.96;78.61914;95657.67;;;;
2022/07/03 05:30:46;;;;;;;4;3.7;;;;;;;16.96;78.61914;95657.67;;;;
2022/07/03 05:31:47;;;;;;;4;3.7;;;;;;;16.96;78.61914;95657.67;;;;
2022/07/03 05:32:47;;;;;;;4;3.7;;;;;;;16.96;78.61914;95657.67;;;;
2022/07/03 05:33:48;;;;;;;3.8;3.5;;;;;;;17.67;78.37305;95653.31;;;;
2022/07/03 05:34:48;;;;;;;3.8;3.5;;;;;;;17.67;78.37305;95653.31;;;;
2022/07/03 05:35:49;;;;;;;3.8;3.5;;;;;;;17.67;78.37305;95653.31;;;;
2022/07/03 05:36:49;;;;;;;3.8;3.5;;;;;;;17.67;78.37305;95653.31;;;;
2022/07/03 05:37:50;;;;;;;3.8;3.5;;;;;;;17.67;78.37305;95653.31;;;;
2022/07/03 05:39:55;;;;;;;3.8;3.5;;;;;;;17.67;78.37305;95653.31;;;;
2022/07/03 05:40:57;;;;;;;3.8;3.5;;;;;;;17.67;78.37305;95653.31;;;;
2022/07/03 05:41:58;;;;;;;3.8;3.5;;;;;;;17.67;78.37305;95653.31;;;;
2022/07/03 05:42:58;;;;;;;3.8;3.5;;;;;;;17.67;78.37305;95653.31;;;;
2022/07/03 05:43:58;;;;;;;3.8;3.5;;;;;;;17.67;78.37305;95653.31;;;;
2022/07/03 05:44:59;;;;;;;3.65;3.2;;;;;;;18.23;78.00293;95651.65;;;;
2022/07/03 05:46:00;;;;;;;3.65;3.2;;;;;;;18.23;78.00293;95651.65;;;;
2022/07/03 05:47:02;;;;;;;3.65;3.2;;;;;;;18.23;78.00293;95651.65;;;;
2022/07/03 05:48:03;;;;;;;3.65;3.2;;;;;;;18.23;78.00293;95651.65;;;;
2022/07/03 05:49:03;;;;;;;3.65;3.2;;;;;;;18.23;78.00293;95651.65;;;;
2022/07/03 05:50:04;;;;;;;3.65;3.2;;;;;;;18.23;78.00293;95651.65;;;;
2022/07/03 05:51:06;;;;;;;3.65;3.2;;;;;;;18.23;78.00293;95651.65;;;;
2022/07/03 05:52:06;;;;;;;3.65;3.2;;;;;;;18.23;78.00293;95651.65;;;;
2022/07/03 05:53:07;;;;;;;3.65;3.2;;;;;;;18.23;78.00293;95651.65;;;;
2022/07/03 05:54:08;;;;;;;3.65;3.2;;;;;;;18.23;78.00293;95651.65;;;;
2022/07/03 05:55:08;;;;;;;3;2.8;;;;;;;18.89;77.47168;95653.57;;;;
2022/07/03 05:56:09;;;;;;;3;2.8;;;;;;;18.89;77.47168;95653.57;;;;